Time;durP1;ratioP1;P1;durP2;ratioP2;P2;SDS_P1;SDS_P2;PMS_P1;PMS_P2;Temp;Humidity;BMP_temperature;BMP_pressure;BME280_temperature;BME280_humidity;BME280_pressure;Samples;Min_cycle;Max_cycle;Signal;HPM_P1;HPM_P2
2021/08/11 00:00:15;;;;;;;34.30;23.57;;;15.60;99.90;;;;;;6307204;22;20183;-87
2021/08/11 00:03:04;;;;;;;33.17;22.43;;;15.60;99.90;;;;;;6298155;22;20182;-86
2021/08/11 00:05:34;;;;;;;32.80;23.07;;;15.50;99.90;;;;;;6307987;22;20576;-86
2021/08/11 00:08:03;;;;;;;36.30;23.17;;;15.60;99.90;;;;;;6324178;22;20161;-83
2021/08/11 00:10:31;;;;;;;34.13;23.23;;;15.60;99.90;;;;;;6327820;22;20153;-84
2021/08/11 00:13:00;;;;;;;30.37;21.60;;;15.60;99.90;;;;;;6333080;22;20149;-86
2021/08/11 00:15:28;;;;;;;34.27;22.93;;;15.60;99.90;;;;;;6306782;22;20168;-85
2021/08/11 00:17:57;;;;;;;41.30;24.10;;;15.60;99.90;;;;;;6305120;22;20184;-85
2021/08/11 00:20:26;;;;;;;39.17;25.00;;;15.60;99.90;;;;;;6306938;22;20157;-86
2021/08/11 00:22:56;;;;;;;40.03;24.63;;;15.70;99.90;;;;;;6314786;22;20149;-87
2021/08/11 00:25:24;;;;;;;40.87;25.30;;;15.70;99.90;;;;;;6319721;22;20213;-86
2021/08/11 00:27:54;;;;;;;40.97;24.43;;;15.80;99.90;;;;;;6324591;22;20136;-83
2021/08/11 00:30:22;;;;;;;48.93;25.53;;;15.80;99.90;;;;;;6336433;22;20475;-84
2021/08/11 00:32:51;;;;;;;40.90;24.37;;;15.80;99.90;;;;;;6337970;22;20141;-84
2021/08/11 00:35:20;;;;;;;47.07;25.53;;;15.80;99.90;;;;;;6337112;22;20166;-85
2021/08/11 00:37:49;;;;;;;46.33;25.57;;;15.90;99.90;;;;;;6320480;22;20192;-84
2021/08/11 00:40:21;;;;;;;44.13;24.60;;;15.90;99.90;;;;;;6326702;22;20148;-82
2021/08/11 00:42:51;;;;;;;43.00;24.80;;;15.90;99.90;;;;;;6327565;22;20157;-83
2021/08/11 00:45:20;;;;;;;56.07;26.20;;;15.90;99.90;;;;;;6332413;22;20230;-83
2021/08/11 00:47:51;;;;;;;42.57;26.50;;;15.90;99.90;;;;;;6333213;22;20176;-86
2021/08/11 00:50:21;;;;;;;45.80;24.97;;;15.90;99.90;;;;;;6326493;22;20748;-85
2021/08/11 00:52:50;;;;;;;45.67;26.93;;;16.00;99.90;;;;;;6314302;22;20681;-86
2021/08/11 00:55:22;;;;;;;48.13;26.40;;;16.00;99.90;;;;;;6315983;22;20261;-84
2021/08/11 00:57:53;;;;;;;43.50;24.60;;;16.00;99.90;;;;;;6327849;22;20245;-87
2021/08/11 01:00:22;;;;;;;42.67;25.47;;;16.00;99.90;;;;;;6331562;22;20171;-85
2021/08/11 01:02:52;;;;;;;39.00;25.37;;;16.00;99.90;;;;;;6303326;22;20161;-85
2021/08/11 01:05:22;;;;;;;49.70;26.13;;;16.10;99.90;;;;;;6305430;22;20153;-86
2021/08/11 01:07:52;;;;;;;46.73;26.20;;;16.10;99.90;;;;;;6305714;22;20214;-86
2021/08/11 01:10:22;;;;;;;42.13;26.23;;;16.00;99.90;;;;;;6306252;22;20826;-86
2021/08/11 01:12:50;;;;;;;45.27;26.00;;;16.00;99.90;;;;;;6309283;22;20172;-85
2021/08/11 01:15:19;;;;;;;44.43;27.47;;;16.10;99.90;;;;;;6310236;22;20664;-83
2021/08/11 01:17:48;;;;;;;52.53;27.27;;;16.10;99.90;;;;;;6316760;22;20229;-85
2021/08/11 01:20:17;;;;;;;46.67;27.03;;;16.10;99.90;;;;;;6309590;22;20580;-84
2021/08/11 01:22:50;;;;;;;42.07;26.57;;;16.10;99.90;;;;;;6304171;22;20239;-83
2021/08/11 01:25:26;;;;;;;40.60;25.67;;;16.10;99.90;;;;;;6304255;22;20157;-86
2021/08/11 01:28:16;;;;;;;40.33;25.67;;;16.10;99.90;;;;;;6309700;22;20156;-83
2021/08/11 01:30:51;;;;;;;43.50;27.03;;;16.10;99.90;;;;;;6311766;22;20164;-85
2021/08/11 01:33:44;;;;;;;45.13;28.10;;;16.20;99.90;;;;;;6316622;22;20494;-85
2021/08/11 01:36:20;;;;;;;44.10;26.90;;;16.20;99.90;;;;;;6314485;22;20583;-82
2021/08/11 01:38:55;;;;;;;43.00;27.37;;;16.20;99.90;;;;;;6316206;22;20180;-83
2021/08/11 01:41:29;;;;;;;44.93;27.80;;;16.20;99.90;;;;;;6313002;22;20163;-85
2021/08/11 01:43:58;;;;;;;42.17;27.67;;;16.20;99.90;;;;;;6327081;22;20161;-82
2021/08/11 01:46:33;;;;;;;43.70;27.43;;;16.20;99.90;;;;;;6326619;22;20152;-87
2021/08/11 01:49:08;;;;;;;45.27;27.23;;;16.20;99.90;;;;;;6331667;22;20522;-84
2021/08/11 01:51:39;;;;;;;41.77;27.03;;;16.20;99.90;;;;;;6331171;22;20152;-82
2021/08/11 01:54:09;;;;;;;34.47;26.53;;;16.20;99.90;;;;;;6317760;22;20684;-84
2021/08/11 01:56:41;;;;;;;39.93;27.47;;;16.30;99.90;;;;;;6320581;22;20167;-85
2021/08/11 01:59:10;;;;;;;37.13;27.00;;;16.20;99.90;;;;;;6328703;22;20187;-84
2021/08/11 02:01:41;;;;;;;39.37;27.80;;;16.20;99.90;;;;;;6328231;22;20159;-86
2021/08/11 02:04:15;;;;;;;39.13;27.67;;;16.20;99.90;;;;;;6320718;22;20157;-83
2021/08/11 02:06:45;;;;;;;39.70;28.00;;;16.20;99.90;;;;;;6311327;22;20161;-85
2021/08/11 02:09:16;;;;;;;42.50;28.07;;;16.20;99.90;;;;;;6314807;22;20652;-84
2021/08/11 02:11:44;;;;;;;36.00;27.57;;;16.20;99.90;;;;;;6315364;22;20538;-82
2021/08/11 02:14:13;;;;;;;40.63;28.60;;;16.20;99.90;;;;;;6320567;22;20208;-83
2021/08/11 02:16:43;;;;;;;37.67;28.00;;;16.20;99.90;;;;;;6319735;22;20156;-83
2021/08/11 02:19:13;;;;;;;36.40;27.60;;;16.20;99.90;;;;;;6323050;22;20199;-85
2021/08/11 02:21:42;;;;;;;36.07;28.30;;;16.20;99.90;;;;;;6336436;22;20152;-84
2021/08/11 02:24:12;;;;;;;35.77;26.23;;;16.20;99.90;;;;;;6329122;22;20157;-83
2021/08/11 02:26:48;;;;;;;39.83;28.63;;;16.20;99.90;;;;;;6315005;22;20754;-85
2021/08/11 02:29:41;;;;;;;42.07;29.60;;;16.10;99.90;;;;;;6323061;22;20342;-84
2021/08/11 02:32:19;;;;;;;40.23;30.03;;;16.10;99.90;;;;;;6302830;22;20152;-83
2021/08/11 02:34:58;;;;;;;42.47;29.43;;;16.00;99.90;;;;;;6310155;22;20164;-85
2021/08/11 02:37:34;;;;;;;41.83;29.90;;;16.00;99.90;;;;;;6310639;22;20163;-84
2021/08/11 02:40:07;;;;;;;41.03;30.23;;;15.90;99.90;;;;;;6300788;22;20180;-84
2021/08/11 02:42:40;;;;;;;50.90;32.20;;;15.80;99.90;;;;;;6313152;22;20162;-83
2021/08/11 02:45:13;;;;;;;52.33;32.03;;;15.80;99.90;;;;;;6311424;22;20176;-84
2021/08/11 02:47:43;;;;;;;48.93;31.93;;;15.70;99.90;;;;;;6311532;22;20599;-83
2021/08/11 02:50:15;;;;;;;50.80;33.67;;;15.70;99.90;;;;;;6311034;22;20161;-85
2021/08/11 02:52:45;;;;;;;53.23;34.30;;;15.70;99.90;;;;;;6311632;22;20172;-85
2021/08/11 02:55:16;;;;;;;57.10;35.40;;;15.70;99.90;;;;;;6313372;22;20477;-85
2021/08/11 02:57:46;;;;;;;50.47;34.07;;;15.70;99.90;;;;;;6308900;22;20148;-85
2021/08/11 03:00:16;;;;;;;49.33;33.73;;;15.70;99.90;;;;;;6305641;22;20219;-84
2021/08/11 03:02:45;;;;;;;48.80;33.80;;;15.70;99.90;;;;;;6306336;22;20633;-86
2021/08/11 03:05:16;;;;;;;56.33;35.87;;;15.60;99.90;;;;;;6308896;22;20171;-84
2021/08/11 03:07:45;;;;;;;50.10;35.37;;;15.60;99.90;;;;;;6313829;22;20172;-84
2021/08/11 03:10:14;;;;;;;47.63;34.40;;;15.60;99.90;;;;;;6305662;22;20167;-87
2021/08/11 03:12:46;;;;;;;51.63;35.50;;;15.60;99.90;;;;;;6309111;22;20598;-86
2021/08/11 03:15:16;;;;;;;47.37;33.77;;;15.60;99.90;;;;;;6309917;22;20198;-84
2021/08/11 03:17:45;;;;;;;49.83;34.67;;;15.60;99.90;;;;;;6317187;22;20152;-85
2021/08/11 03:20:15;;;;;;;49.37;32.33;;;15.60;99.90;;;;;;6341714;22;20230;-85
2021/08/11 03:22:44;;;;;;;50.93;34.37;;;15.50;99.90;;;;;;6338092;22;20174;-87
2021/08/11 03:25:13;;;;;;;53.60;34.40;;;15.40;99.90;;;;;;6338471;22;20427;-84
2021/08/11 03:27:41;;;;;;;57.17;34.80;;;15.30;99.90;;;;;;6322756;22;20159;-83
2021/08/11 03:30:11;;;;;;;57.00;35.30;;;15.30;99.90;;;;;;6326695;22;20156;-87
2021/08/11 03:32:39;;;;;;;55.03;36.50;;;15.30;99.90;;;;;;6338396;22;20176;-84
2021/08/11 03:35:08;;;;;;;53.80;35.50;;;15.30;99.90;;;;;;6331917;22;20165;-85
2021/08/11 03:37:38;;;;;;;56.47;35.43;;;15.40;99.90;;;;;;6331381;22;20175;-84
2021/08/11 03:40:08;;;;;;;52.57;35.97;;;15.50;99.90;;;;;;6318708;22;20190;-84
2021/08/11 03:42:36;;;;;;;44.00;33.23;;;15.50;99.90;;;;;;6315229;22;20330;-84
2021/08/11 03:45:08;;;;;;;45.47;33.10;;;15.60;99.90;;;;;;6312541;22;20157;-82
2021/08/11 03:47:41;;;;;;;43.43;32.80;;;15.70;99.90;;;;;;6301956;22;20374;-85
2021/08/11 03:50:11;;;;;;;47.37;33.60;;;15.70;99.90;;;;;;6316620;22;20575;-87
2021/08/11 03:52:42;;;;;;;47.77;33.17;;;15.70;99.90;;;;;;6313786;22;20199;-85
2021/08/11 03:55:12;;;;;;;43.63;32.37;;;15.70;99.90;;;;;;6315210;22;20485;-84
2021/08/11 03:57:41;;;;;;;49.13;32.67;;;15.70;99.90;;;;;;6315657;22;20171;-86
2021/08/11 04:00:11;;;;;;;44.03;32.00;;;15.70;99.90;;;;;;6312895;22;20180;-87
2021/08/11 04:02:39;;;;;;;43.97;31.10;;;15.70;99.90;;;;;;6310616;22;20172;-84
2021/08/11 04:05:10;;;;;;;44.50;32.03;;;15.60;99.90;;;;;;6308824;22;20161;-86
2021/08/11 04:07:38;;;;;;;49.43;33.87;;;15.70;99.90;;;;;;6311679;22;20176;-84
2021/08/11 04:10:10;;;;;;;50.27;33.80;;;15.80;99.90;;;;;;6314064;22;20204;-84
2021/08/11 04:12:39;;;;;;;52.23;34.33;;;15.80;99.90;;;;;;6310390;22;20157;-84
2021/08/11 04:15:09;;;;;;;49.10;34.37;;;15.80;99.90;;;;;;6312024;22;20952;-84
2021/08/11 04:17:40;;;;;;;49.00;35.60;;;15.70;99.90;;;;;;6303136;22;20688;-85
2021/08/11 04:20:10;;;;;;;48.70;34.67;;;15.70;99.90;;;;;;6311792;22;20817;-85
2021/08/11 04:22:39;;;;;;;51.43;36.10;;;15.60;99.90;;;;;;6308373;22;20160;-86
2021/08/11 04:25:10;;;;;;;53.93;37.37;;;15.70;99.90;;;;;;6309220;22;20513;-84
2021/08/11 04:27:38;;;;;;;49.73;36.17;;;15.70;99.90;;;;;;6323105;22;20593;-86
2021/08/11 04:30:08;;;;;;;51.53;37.00;;;15.80;99.90;;;;;;6328685;22;20160;-86
2021/08/11 04:32:37;;;;;;;51.77;38.07;;;15.90;99.90;;;;;;6320578;22;20175;-84
2021/08/11 04:35:07;;;;;;;55.70;38.83;;;16.00;99.90;;;;;;6307433;22;20160;-85
2021/08/11 04:37:36;;;;;;;53.43;36.97;;;16.00;99.90;;;;;;6305746;22;20242;-84
2021/08/11 04:40:06;;;;;;;49.80;36.53;;;15.90;99.90;;;;;;6305901;22;20157;-83
2021/08/11 04:42:36;;;;;;;57.93;40.00;;;16.10;99.90;;;;;;6303082;22;20164;-86
2021/08/11 04:45:06;;;;;;;56.00;38.63;;;15.90;99.90;;;;;;6304601;22;20366;-87
2021/08/11 04:47:35;;;;;;;55.00;37.87;;;15.90;99.90;;;;;;6303873;22;20157;-85
2021/08/11 04:50:04;;;;;;;54.17;38.60;;;15.90;99.90;;;;;;6308536;22;20169;-85
2021/08/11 04:52:33;;;;;;;55.77;38.03;;;16.00;99.90;;;;;;6309325;22;20180;-84
2021/08/11 04:55:03;;;;;;;52.23;35.73;;;16.10;99.90;;;;;;6307687;22;20161;-86
2021/08/11 04:57:31;;;;;;;50.47;36.30;;;16.20;99.90;;;;;;6311964;22;20195;-84
2021/08/11 05:00:01;;;;;;;50.50;35.50;;;16.30;99.90;;;;;;6310780;22;20879;-86
2021/08/11 05:02:39;;;;;;;51.80;36.57;;;16.30;99.90;;;;;;6314423;22;20191;-87
2021/08/11 05:05:10;;;;;;;46.67;34.10;;;16.40;99.90;;;;;;6196220;22;20638;-85
2021/08/11 05:07:39;;;;;;;49.97;34.93;;;16.40;99.90;;;;;;6276027;22;21066;-85
2021/08/11 05:10:08;;;;;;;52.43;35.57;;;16.40;99.90;;;;;;6310812;22;20717;-86
2021/08/11 05:12:38;;;;;;;46.97;33.80;;;16.30;99.90;;;;;;6312902;22;20386;-85
2021/08/11 05:15:09;;;;;;;46.03;32.53;;;16.30;99.90;;;;;;6311080;22;20164;-86
2021/08/11 05:17:38;;;;;;;36.60;29.30;;;16.30;99.90;;;;;;6315648;22;20180;-84
2021/08/11 05:20:07;;;;;;;38.17;27.87;;;16.40;99.90;;;;;;6318460;22;20156;-84
2021/08/11 05:22:37;;;;;;;37.90;28.80;;;16.50;99.90;;;;;;6275267;22;20192;-86
2021/08/11 05:25:06;;;;;;;33.20;26.73;;;16.40;99.90;;;;;;6306599;22;20199;-84
2021/08/11 05:27:37;;;;;;;36.23;28.10;;;16.50;99.90;;;;;;6313455;22;20164;-85
2021/08/11 05:30:09;;;;;;;37.70;27.30;;;16.60;99.90;;;;;;6309776;22;20176;-86
2021/08/11 05:32:40;;;;;;;36.60;26.30;;;16.60;99.90;;;;;;6308089;22;20153;-86
2021/08/11 05:35:10;;;;;;;36.43;27.90;;;16.50;99.90;;;;;;6306871;22;20164;-86
2021/08/11 05:37:40;;;;;;;39.07;27.50;;;16.30;99.90;;;;;;6311772;22;20641;-87
2021/08/11 05:40:11;;;;;;;38.10;28.27;;;16.50;99.90;;;;;;6314878;22;20161;-87
2021/08/11 05:42:40;;;;;;;40.97;29.43;;;16.50;99.90;;;;;;6320048;22;20203;-86
2021/08/11 05:45:11;;;;;;;36.80;27.40;;;16.50;99.90;;;;;;6317102;22;20186;-85
2021/08/11 05:47:40;;;;;;;41.73;27.97;;;16.50;99.90;;;;;;6312963;22;20251;-85
2021/08/11 05:50:38;;;;;;;37.00;27.70;;;16.60;99.90;;;;;;6282633;22;20794;-86
2021/08/11 05:53:07;;;;;;;37.07;27.80;;;16.80;99.90;;;;;;6306196;22;20191;-85
2021/08/11 05:55:35;;;;;;;33.80;26.47;;;16.80;99.90;;;;;;6323189;22;20140;-86
2021/08/11 05:58:05;;;;;;;33.67;25.33;;;17.00;99.90;;;;;;6327278;22;20167;-87
2021/08/11 06:00:36;;;;;;;32.03;25.03;;;17.10;99.90;;;;;;6333900;22;20649;-87
2021/08/11 06:03:11;;;;;;;29.10;23.57;;;17.40;99.90;;;;;;6332773;22;20171;-86
2021/08/11 06:05:40;;;;;;;29.27;23.47;;;17.50;99.90;;;;;;6333757;22;20148;-87
2021/08/11 06:08:46;;;;;;;31.13;24.33;;;17.70;99.90;;;;;;6336538;22;20175;-85
2021/08/11 06:11:19;;;;;;;27.40;22.73;;;17.60;99.90;;;;;;6334863;22;20251;-86
2021/08/11 06:13:48;;;;;;;29.63;20.90;;;17.60;99.90;;;;;;6336363;22;20179;-86
2021/08/11 06:16:18;;;;;;;26.83;22.57;;;17.50;99.90;;;;;;6334312;22;20168;-87
2021/08/11 06:18:48;;;;;;;25.80;20.60;;;17.20;99.90;;;;;;6279856;22;20172;-86
2021/08/11 06:21:17;;;;;;;26.33;20.73;;;17.20;99.90;;;;;;6310181;22;20217;-87
2021/08/11 06:23:46;;;;;;;26.67;21.50;;;17.20;99.90;;;;;;6303864;22;20251;-84
2021/08/11 06:26:15;;;;;;;24.10;20.53;;;17.20;99.90;;;;;;6309348;22;20384;-86
2021/08/11 06:28:43;;;;;;;24.30;19.37;;;17.20;99.90;;;;;;6309955;22;20179;-86
2021/08/11 06:31:14;;;;;;;21.80;18.87;;;17.30;99.90;;;;;;6299763;22;20186;-86
2021/08/11 06:33:45;;;;;;;24.30;19.83;;;17.40;99.90;;;;;;6303207;22;20208;-86
2021/08/11 06:36:14;;;;;;;23.73;19.30;;;17.70;99.90;;;;;;6315588;22;20172;-86
2021/08/11 06:38:43;;;;;;;21.20;18.33;;;18.00;99.90;;;;;;6309960;22;20401;-86
2021/08/11 06:41:15;;;;;;;20.30;17.23;;;18.50;99.90;;;;;;6308116;22;20171;-85
2021/08/11 06:43:45;;;;;;;18.00;15.63;;;19.00;99.90;;;;;;6283012;22;20247;-87
2021/08/11 06:46:15;;;;;;;17.10;14.77;;;19.40;99.90;;;;;;6281217;22;20736;-87
2021/08/11 06:48:45;;;;;;;16.20;14.50;;;19.60;96.90;;;;;;6279427;22;20156;-86
2021/08/11 06:51:14;;;;;;;19.40;14.17;;;19.90;96.10;;;;;;6280768;22;20222;-87
2021/08/11 06:53:43;;;;;;;16.97;14.80;;;20.10;95.60;;;;;;6251676;22;20630;-88
2021/08/11 06:56:11;;;;;;;16.23;14.13;;;20.20;94.10;;;;;;6291343;22;20181;-85
2021/08/11 06:58:40;;;;;;;17.05;14.80;;;20.20;93.20;;;;;;6305208;22;20169;-87
2021/08/11 07:01:09;;;;;;;15.88;13.65;;;20.20;93.40;;;;;;6292167;22;20176;-88
2021/08/11 07:03:38;;;;;;;14.77;13.17;;;20.20;93.50;;;;;;6293809;22;20891;-88
2021/08/11 07:06:09;;;;;;;16.60;14.90;;;20.30;93.70;;;;;;6279806;22;20674;-87
2021/08/11 07:08:38;;;;;;;15.97;13.33;;;20.10;92.90;;;;;;6280950;22;20172;-87
2021/08/11 07:11:06;;;;;;;16.90;14.07;;;19.80;93.10;;;;;;6289455;22;20694;-87
2021/08/11 07:13:35;;;;;;;16.20;13.83;;;19.70;94.00;;;;;;6279272;22;20164;-86
2021/08/11 07:16:09;;;;;;;15.20;13.03;;;19.70;95.10;;;;;;6246716;22;20982;-87
2021/08/11 07:18:37;;;;;;;15.87;12.90;;;19.80;93.90;;;;;;6286982;22;20198;-89
2021/08/11 07:21:08;;;;;;;15.10;13.20;;;19.90;93.60;;;;;;6291860;22;20160;-88
2021/08/11 07:23:36;;;;;;;15.50;12.33;;;19.90;94.30;;;;;;6298280;22;20196;-88
2021/08/11 07:26:08;;;;;;;13.37;11.97;;;19.80;95.00;;;;;;6295917;22;20190;-88
2021/08/11 07:28:37;;;;;;;15.00;10.80;;;19.60;92.70;;;;;;6263725;22;20253;-87
2021/08/11 07:31:08;;;;;;;15.67;11.70;;;19.30;93.20;;;;;;6306014;22;20506;-86
2021/08/11 07:33:37;;;;;;;14.07;11.73;;;19.30;95.20;;;;;;6304916;22;20167;-87
2021/08/11 07:36:08;;;;;;;13.53;11.47;;;19.20;94.70;;;;;;6305831;22;20196;-87
2021/08/11 07:38:37;;;;;;;16.03;12.97;;;19.30;94.60;;;;;;6305569;22;20160;-88
2021/08/11 07:41:06;;;;;;;15.90;12.57;;;19.50;94.00;;;;;;6309506;22;20171;-86
2021/08/11 07:43:35;;;;;;;15.63;13.10;;;19.60;93.20;;;;;;6279663;22;20204;-87
2021/08/11 07:46:04;;;;;;;14.60;13.10;;;19.60;93.60;;;;;;6299030;22;20168;-87
2021/08/11 07:48:36;;;;;;;14.20;12.73;;;19.70;92.90;;;;;;6310830;22;20444;-85
2021/08/11 07:51:05;;;;;;;14.40;12.57;;;19.70;93.50;;;;;;6322433;22;20206;-87
2021/08/11 07:53:35;;;;;;;13.17;11.77;;;19.80;92.90;;;;;;6310959;22;20180;-87
2021/08/11 07:56:05;;;;;;;13.17;11.87;;;19.80;92.50;;;;;;6304672;22;20180;-87
2021/08/11 07:58:34;;;;;;;12.50;11.20;;;19.90;92.20;;;;;;6312047;22;20755;-83
2021/08/11 08:01:03;;;;;;;12.47;10.23;;;19.90;92.40;;;;;;6316721;22;20905;-87
2021/08/11 08:03:33;;;;;;;11.97;10.33;;;20.00;92.90;;;;;;6317774;22;20196;-87
2021/08/11 08:06:05;;;;;;;11.50;9.10;;;20.20;91.60;;;;;;6307923;22;20270;-88
2021/08/11 08:08:36;;;;;;;11.03;9.93;;;20.40;92.30;;;;;;6301424;22;20229;-87
2021/08/11 08:11:06;;;;;;;10.17;9.13;;;20.50;91.40;;;;;;6296129;22;20607;-87
2021/08/11 08:13:35;;;;;;;10.37;9.27;;;20.50;92.00;;;;;;6260812;22;20183;-86
2021/08/11 08:16:07;;;;;;;9.83;8.83;;;20.50;92.20;;;;;;6293231;22;20173;-86
2021/08/11 08:18:37;;;;;;;9.47;8.47;;;20.40;91.80;;;;;;6294576;22;20172;-86
2021/08/11 08:21:05;;;;;;;10.17;8.63;;;20.50;92.50;;;;;;6305266;22;20216;-86
2021/08/11 08:23:36;;;;;;;11.10;9.90;;;20.80;92.70;;;;;;6314770;22;20413;-87
2021/08/11 08:26:05;;;;;;;8.85;7.93;;;21.00;91.40;;;;;;6319644;22;20249;-87
2021/08/11 08:28:34;;;;;;;8.90;8.10;;;21.20;91.80;;;;;;6320647;22;20140;-87
2021/08/11 08:31:03;;;;;;;9.07;8.27;;;21.40;91.10;;;;;;6311753;22;20180;-87
2021/08/11 08:33:32;;;;;;;8.70;7.90;;;21.50;90.40;;;;;;6308304;22;20149;-86
2021/08/11 08:36:01;;;;;;;8.70;7.90;;;21.40;90.40;;;;;;6289211;22;20176;-86
2021/08/11 08:38:30;;;;;;;8.45;7.55;;;21.30;90.30;;;;;;6295913;22;20460;-86
2021/08/11 08:41:12;;;;;;;8.63;7.72;;;21.20;90.60;;;;;;6304263;22;20214;-90
2021/08/11 08:43:45;;;;;;;8.60;7.50;;;21.10;90.40;;;;;;6275613;22;20265;-87
2021/08/11 08:46:17;;;;;;;8.30;7.50;;;21.10;90.60;;;;;;6318077;22;20261;-87
2021/08/11 08:48:47;;;;;;;8.60;7.70;;;21.30;90.70;;;;;;6316598;22;20155;-87
2021/08/11 08:51:21;;;;;;;9.23;8.25;;;21.30;91.00;;;;;;6295702;22;20160;-86
2021/08/11 08:54:28;;;;;;;8.88;8.00;;;21.40;90.20;;;;;;6284314;22;20180;-86
2021/08/11 08:57:06;;;;;;;7.85;7.15;;;21.50;89.50;;;;;;6299388;22;20613;-87
2021/08/11 08:59:35;;;;;;;8.10;7.35;;;21.40;90.30;;;;;;6252830;22;20413;-87
2021/08/11 09:02:10;;;;;;;8.88;7.97;;;21.30;89.50;;;;;;6307693;22;20335;-88
2021/08/11 09:04:42;;;;;;;9.15;7.07;;;21.40;89.60;;;;;;6310551;22;20221;-86
2021/08/11 09:07:15;;;;;;;7.85;7.15;;;21.20;89.90;;;;;;6297714;22;20440;-87
2021/08/11 09:09:44;;;;;;;8.52;7.72;;;21.40;90.80;;;;;;6295328;22;20192;-87
2021/08/11 09:12:16;;;;;;;8.57;7.75;;;21.70;90.50;;;;;;6290955;22;20591;-88
2021/08/11 09:14:47;;;;;;;7.93;7.22;;;21.80;89.60;;;;;;6288980;22;20180;-87
2021/08/11 09:17:34;;;;;;;8.35;7.55;;;21.80;89.10;;;;;;6296687;22;20175;-88
2021/08/11 09:20:03;;;;;;;8.70;7.55;;;21.80;88.30;;;;;;6295132;22;20602;-88
2021/08/11 09:22:46;;;;;;;8.30;7.38;;;21.70;88.70;;;;;;6288121;22;20417;-87
2021/08/11 09:25:19;;;;;;;7.47;6.78;;;21.60;89.70;;;;;;6283840;22;20175;-87
2021/08/11 09:28:01;;;;;;;6.90;6.20;;;21.60;88.50;;;;;;6283488;22;20256;-90
2021/08/11 09:30:33;;;;;;;6.80;6.20;;;21.80;88.50;;;;;;6288695;22;20176;-87
2021/08/11 09:33:05;;;;;;;7.03;6.05;;;22.00;87.90;;;;;;6288375;22;20393;-86
2021/08/11 09:36:11;;;;;;;6.63;5.80;;;22.10;87.90;;;;;;6297307;22;20168;-91
2021/08/11 09:38:55;;;;;;;6.95;5.60;;;22.20;88.10;;;;;;6313562;22;20171;-87
2021/08/11 09:41:25;;;;;;;6.25;5.65;;;22.40;88.10;;;;;;6317165;22;21083;-89
2021/08/11 09:44:08;;;;;;;6.40;5.50;;;22.60;87.80;;;;;;6318983;22;20292;-87
2021/08/11 09:46:41;;;;;;;6.85;5.43;;;22.80;87.70;;;;;;6316488;22;20358;-88
2021/08/11 09:49:16;;;;;;;6.47;5.53;;;22.90;87.90;;;;;;6266687;22;20669;-87
2021/08/11 09:51:56;;;;;;;5.20;4.80;;;23.20;87.00;;;;;;6294290;22;20400;-85
2021/08/11 09:54:28;;;;;;;5.97;4.97;;;23.30;85.60;;;;;;6305991;22;20268;-87
2021/08/11 09:56:58;;;;;;;6.00;5.50;;;23.30;85.00;;;;;;6294068;22;20468;-88
2021/08/11 09:59:29;;;;;;;5.78;5.25;;;23.20;86.00;;;;;;6288928;22;20173;-88
2021/08/11 10:02:17;;;;;;;6.00;4.93;;;23.10;84.10;;;;;;6287230;22;20160;-88
2021/08/11 10:04:47;;;;;;;5.70;4.82;;;23.20;84.90;;;;;;6259738;22;21040;-87
2021/08/11 10:07:16;;;;;;;5.20;4.50;;;23.20;84.40;;;;;;6300907;22;20218;-88
2021/08/11 10:10:02;;;;;;;5.00;4.50;;;23.20;84.30;;;;;;6301757;22;20168;-88
2021/08/11 10:12:33;;;;;;;4.50;4.10;;;23.50;84.80;;;;;;6300192;22;20292;-87
2021/08/11 10:15:08;;;;;;;4.63;4.13;;;23.50;83.80;;;;;;6296609;22;20235;-87
2021/08/11 10:17:38;;;;;;;4.40;4.00;;;23.50;83.10;;;;;;6297497;22;20667;-88
2021/08/11 10:20:11;;;;;;;4.72;4.03;;;23.50;82.30;;;;;;6255598;22;20202;-87
2021/08/11 10:22:40;;;;;;;4.32;3.92;;;23.50;83.10;;;;;;6295279;22;20164;-89
2021/08/11 10:25:11;;;;;;;4.05;3.63;;;23.30;82.20;;;;;;6300539;22;20199;-88
2021/08/11 10:27:45;;;;;;;4.43;4.03;;;23.30;82.10;;;;;;6319298;22;20149;-85
2021/08/11 10:30:18;;;;;;;5.20;3.63;;;23.30;81.40;;;;;;6300227;22;20179;-87
2021/08/11 10:32:48;;;;;;;4.53;3.85;;;23.20;81.60;;;;;;6297400;22;20171;-86
2021/08/11 10:35:18;;;;;;;3.42;3.13;;;23.30;81.60;;;;;;6288430;22;20242;-86
2021/08/11 10:37:48;;;;;;;3.40;3.08;;;23.40;81.30;;;;;;6295037;22;20175;-86
2021/08/11 10:40:17;;;;;;;3.75;3.17;;;23.50;79.90;;;;;;6301332;22;20168;-87
2021/08/11 10:42:57;;;;;;;3.47;2.72;;;23.50;79.40;;;;;;6279993;22;20182;-86
2021/08/11 10:45:31;;;;;;;3.25;2.95;;;23.50;79.20;;;;;;6244356;22;20203;-89
2021/08/11 10:48:01;;;;;;;3.20;2.90;;;23.70;79.10;;;;;;6287263;22;20167;-88
2021/08/11 10:50:47;;;;;;;3.40;3.08;;;23.70;78.80;;;;;;6255134;22;20631;-86
2021/08/11 10:53:19;;;;;;;4.20;3.35;;;23.80;79.40;;;;;;6264481;22;20183;-88
2021/08/11 10:55:50;;;;;;;3.42;3.05;;;23.60;78.60;;;;;;6285754;22;20222;-87
2021/08/11 10:58:44;;;;;;;3.17;2.80;;;23.60;79.30;;;;;;6281327;22;20216;-86
2021/08/11 11:01:35;;;;;;;3.38;3.03;;;23.50;79.30;;;;;;6278742;22;20237;-88
2021/08/11 11:04:05;;;;;;;3.35;3.05;;;23.60;79.40;;;;;;6271899;22;20198;-87
2021/08/11 11:06:54;;;;;;;3.13;2.83;;;23.70;79.60;;;;;;6272496;22;20230;-86
2021/08/11 11:09:52;;;;;;;3.03;2.80;;;23.80;77.60;;;;;;6282469;22;21058;-88
2021/08/11 11:13:02;;;;;;;3.00;2.70;;;23.40;79.20;;;;;;6263081;22;20164;-88
2021/08/11 11:16:01;;;;;;;2.63;2.33;;;23.70;78.20;;;;;;6292402;22;20158;-88
2021/08/11 11:18:41;;;;;;;3.85;2.83;;;24.10;78.20;;;;;;6300884;22;20224;-88
2021/08/11 11:21:36;;;;;;;3.22;2.70;;;24.30;77.70;;;;;;6292748;22;20156;-88
2021/08/11 11:24:50;;;;;;;3.53;2.47;;;24.30;77.30;;;;;;6263835;22;20195;-88
2021/08/11 11:28:01;;;;;;;3.45;3.03;;;24.40;77.90;;;;;;6211118;22;20180;-88
2021/08/11 11:30:39;;;;;;;6.22;3.15;;;24.60;77.60;;;;;;6244661;22;20180;-89
2021/08/11 11:33:32;;;;;;;3.25;3.05;;;24.00;78.00;;;;;;6276973;22;20157;-86
2021/08/11 11:36:22;;;;;;;3.78;3.33;;;23.60;78.60;;;;;;6283485;22;20710;-86
2021/08/11 11:39:12;;;;;;;5.93;3.30;;;23.00;78.80;;;;;;6243600;22;20175;-89
2021/08/11 11:42:22;;;;;;;5.95;3.05;;;22.60;79.50;;;;;;6285481;22;20385;-88
2021/08/11 11:44:57;;;;;;;3.88;3.45;;;22.50;80.20;;;;;;6296871;22;20258;-87
2021/08/11 11:48:11;;;;;;;5.35;3.63;;;22.50;79.80;;;;;;6312871;22;20477;-88
2021/08/11 11:50:46;;;;;;;5.65;3.17;;;22.50;79.80;;;;;;6311253;22;20470;-87
2021/08/11 11:53:30;;;;;;;4.18;3.38;;;22.60;80.10;;;;;;6266087;22;20206;-88
2021/08/11 11:56:24;;;;;;;3.42;3.10;;;22.90;80.00;;;;;;6285210;22;20164;-87
2021/08/11 11:58:54;;;;;;;3.22;2.92;;;23.20;79.60;;;;;;6290246;22;20533;-87
2021/08/11 12:01:39;;;;;;;4.07;2.90;;;23.50;79.60;;;;;;6300949;22;20180;-87
2021/08/11 12:04:15;;;;;;;4.95;2.80;;;23.70;78.60;;;;;;6276560;22;20248;-86
2021/08/11 12:06:54;;;;;;;2.80;2.60;;;23.70;77.40;;;;;;6290401;22;20168;-88
2021/08/11 12:09:47;;;;;;;2.90;2.70;;;23.50;76.70;;;;;;6294304;22;20393;-89
2021/08/11 12:12:25;;;;;;;2.80;2.60;;;23.30;76.90;;;;;;6277316;22;20249;-87
2021/08/11 12:15:17;;;;;;;2.55;2.35;;;23.40;77.00;;;;;;6274801;22;20176;-87
2021/08/11 12:17:46;;;;;;;3.88;2.28;;;23.50;76.70;;;;;;6270831;22;20217;-86
2021/08/11 12:20:33;;;;;;;2.50;2.30;;;23.70;77.30;;;;;;6270076;22;20168;-87
2021/08/11 12:23:17;;;;;;;2.75;2.17;;;23.70;76.50;;;;;;6285878;22;20172;-86
2021/08/11 12:25:48;;;;;;;3.20;2.35;;;23.70;75.30;;;;;;6288752;22;20192;-85
2021/08/11 12:28:19;;;;;;;2.63;2.30;;;23.70;75.70;;;;;;6289781;22;20223;-87
2021/08/11 12:30:57;;;;;;;2.72;2.53;;;23.70;75.60;;;;;;6303987;22;20169;-89
2021/08/11 12:33:28;;;;;;;2.95;2.60;;;23.50;73.80;;;;;;6284740;22;20428;-88
2021/08/11 12:35:59;;;;;;;2.92;2.40;;;23.10;74.00;;;;;;6271349;22;20173;-86
2021/08/11 12:38:36;;;;;;;2.70;2.50;;;23.10;74.20;;;;;;6267537;22;20986;-86
2021/08/11 12:41:20;;;;;;;3.47;2.65;;;23.00;73.80;;;;;;6276599;22;20191;-86
2021/08/11 12:43:55;;;;;;;3.17;2.50;;;23.10;73.50;;;;;;6282579;22;20927;-88
2021/08/11 12:46:48;;;;;;;3.35;2.35;;;23.10;74.40;;;;;;6292521;22;20191;-86
2021/08/11 12:49:19;;;;;;;2.88;2.40;;;23.30;74.40;;;;;;6304766;22;20164;-87
2021/08/11 12:52:13;;;;;;;2.17;2.05;;;23.40;74.20;;;;;;6313552;22;20245;-87
2021/08/11 12:54:58;;;;;;;2.65;2.45;;;23.70;74.00;;;;;;6297832;22;20162;-86
2021/08/11 12:57:48;;;;;;;2.72;2.53;;;23.70;73.90;;;;;;6301174;22;20454;-87
2021/08/11 13:00:18;;;;;;;2.75;2.55;;;23.80;74.00;;;;;;6314436;22;20172;-87
2021/08/11 13:02:59;;;;;;;3.28;2.60;;;23.50;72.50;;;;;;6306304;22;21002;-87
2021/08/11 13:05:30;;;;;;;2.63;2.42;;;23.10;73.20;;;;;;6307640;22;20729;-87